Time;durP1;ratioP1;P1;durP2;ratioP2;P2;SDS_P1;SDS_P2;PMS_P1;PMS_P2;Temp;Humidity;BMP_temperature;BMP_pressure;BME280_temperature;BME280_humidity;BME280_pressure;Samples;Min_cycle;Max_cycle;Signal;HPM_P1;HPM_P2
2021/12/12 00:02:20;;;;;;;7.03;4.82;;;;;;;;;;4973920;28;20026;-69
2021/12/12 00:04:47;;;;;;;8.93;4.68;;;;;;;;;;4967703;28;20495;-69
2021/12/12 00:07:18;;;;;;;8.00;4.50;;;;;;;;;;4959730;28;20034;-69
2021/12/12 00:09:46;;;;;;;8.80;5.00;;;;;;;;;;4973853;28;20484;-69
2021/12/12 00:12:15;;;;;;;8.27;4.85;;;;;;;;;;4974402;28;20526;-69
2021/12/12 00:14:43;;;;;;;8.70;4.85;;;;;;;;;;4974785;28;20045;-69
2021/12/12 00:17:10;;;;;;;7.13;4.72;;;;;;;;;;4973969;28;20027;-69
2021/12/12 00:19:37;;;;;;;11.82;5.07;;;;;;;;;;4974553;28;20053;-69
2021/12/12 00:22:06;;;;;;;6.00;4.32;;;;;;;;;;4973767;28;20104;-70
2021/12/12 00:24:32;;;;;;;6.90;4.55;;;;;;;;;;4974372;28;20022;-69
2021/12/12 00:26:58;;;;;;;5.10;4.38;;;;;;;;;;4976483;28;20030;-70
2021/12/12 00:29:25;;;;;;;7.15;4.70;;;;;;;;;;4974706;28;20042;-69
2021/12/12 00:31:53;;;;;;;6.45;4.05;;;;;;;;;;4974335;28;20034;-69
2021/12/12 00:34:19;;;;;;;8.18;5.07;;;;;;;;;;4973665;28;20446;-69
2021/12/12 00:36:45;;;;;;;8.20;4.43;;;;;;;;;;4973968;28;20484;-69
2021/12/12 00:39:17;;;;;;;6.32;4.75;;;;;;;;;;4973411;28;20031;-69
2021/12/12 00:41:52;;;;;;;7.35;4.30;;;;;;;;;;4974005;28;20046;-69
2021/12/12 00:44:19;;;;;;;6.75;4.68;;;;;;;;;;4973638;28;20054;-69
2021/12/12 00:46:45;;;;;;;7.95;5.35;;;;;;;;;;4974003;28;20121;-69
2021/12/12 00:49:12;;;;;;;10.23;4.90;;;;;;;;;;4973474;28;20507;-70
2021/12/12 00:51:40;;;;;;;7.40;5.53;;;;;;;;;;4974213;28;20512;-69
2021/12/12 00:54:07;;;;;;;10.93;6.05;;;;;;;;;;4973481;28;20124;-69
2021/12/12 00:56:33;;;;;;;7.22;5.75;;;;;;;;;;4973637;28;20507;-69
2021/12/12 00:58:59;;;;;;;7.90;5.68;;;;;;;;;;4973843;28;20027;-69
2021/12/12 01:01:33;;;;;;;9.75;5.55;;;;;;;;;;4974725;28;20077;-69
2021/12/12 01:04:02;;;;;;;10.50;6.45;;;;;;;;;;4973604;28;20025;-69
2021/12/12 01:06:28;;;;;;;10.02;6.28;;;;;;;;;;4954862;29;20091;-69
2021/12/12 01:08:56;;;;;;;8.55;5.90;;;;;;;;;;4965097;28;20499;-69
2021/12/12 01:11:28;;;;;;;9.43;6.55;;;;;;;;;;4973156;28;20109;-69
2021/12/12 01:13:54;;;;;;;8.63;5.88;;;;;;;;;;4980844;28;20039;-69
2021/12/12 01:16:24;;;;;;;9.75;6.20;;;;;;;;;;4978438;28;20114;-70
2021/12/12 01:18:52;;;;;;;10.23;6.40;;;;;;;;;;4973225;28;20049;-69
2021/12/12 01:21:21;;;;;;;9.40;5.63;;;;;;;;;;4973029;28;20286;-69
2021/12/12 01:23:53;;;;;;;9.93;6.05;;;;;;;;;;4973688;28;20031;-69
2021/12/12 01:26:19;;;;;;;9.20;5.15;;;;;;;;;;4972709;28;20395;-70
2021/12/12 01:28:47;;;;;;;8.02;5.65;;;;;;;;;;4973668;28;20033;-69
2021/12/12 01:31:15;;;;;;;8.52;5.25;;;;;;;;;;4972693;28;20088;-69
2021/12/12 01:33:41;;;;;;;10.10;5.38;;;;;;;;;;4973137;28;20372;-69
2021/12/12 01:36:07;;;;;;;8.90;5.28;;;;;;;;;;4974817;28;20368;-69
2021/12/12 01:38:55;;;;;;;7.72;5.53;;;;;;;;;;4973189;28;20118;-69
2021/12/12 01:41:24;;;;;;;8.63;5.22;;;;;;;;;;4973082;28;20066;-69
2021/12/12 01:43:51;;;;;;;8.63;5.93;;;;;;;;;;4972989;28;20531;-68
2021/12/12 01:46:25;;;;;;;8.90;5.88;;;;;;;;;;4972561;28;20454;-68
2021/12/12 01:48:51;;;;;;;9.35;6.20;;;;;;;;;;4973191;28;20496;-68
2021/12/12 01:51:18;;;;;;;7.68;5.65;;;;;;;;;;4972846;28;20055;-69
2021/12/12 01:53:46;;;;;;;8.23;5.05;;;;;;;;;;4973091;28;20035;-68
2021/12/12 01:56:23;;;;;;;8.88;5.68;;;;;;;;;;4971199;28;20129;-68
2021/12/12 01:58:52;;;;;;;9.68;6.30;;;;;;;;;;4972860;28;20042;-69
2021/12/12 02:01:21;;;;;;;10.90;6.30;;;;;;;;;;4972470;28;20031;-68
2021/12/12 02:03:48;;;;;;;9.57;6.25;;;;;;;;;;4972824;28;20480;-68
2021/12/12 02:06:15;;;;;;;8.18;5.82;;;;;;;;;;4953819;28;20023;-70
2021/12/12 02:08:42;;;;;;;9.25;5.78;;;;;;;;;;4967625;28;20035;-70
2021/12/12 02:11:11;;;;;;;9.70;5.70;;;;;;;;;;4972588;28;20441;-70
2021/12/12 02:13:38;;;;;;;7.55;5.35;;;;;;;;;;4972805;28;20031;-70
2021/12/12 02:16:05;;;;;;;8.65;5.35;;;;;;;;;;4972352;28;20030;-70
2021/12/12 02:18:35;;;;;;;7.82;5.25;;;;;;;;;;4972319;28;20027;-69
2021/12/12 02:21:17;;;;;;;10.90;6.32;;;;;;;;;;4972725;28;20115;-68
2021/12/12 02:35:08;;;;;;;7.82;4.82;;;;;;;;;;4971829;28;20497;-71
2021/12/12 02:37:32;;;;;;;9.00;5.38;;;;;;;;;;4976041;28;20038;-70
2021/12/12 02:39:58;;;;;;;7.65;4.68;;;;;;;;;;4976122;28;20027;-70
2021/12/12 02:42:24;;;;;;;12.07;5.28;;;;;;;;;;4975098;28;20428;-70
2021/12/12 02:44:55;;;;;;;5.70;4.50;;;;;;;;;;4975926;28;20158;-70
2021/12/12 02:47:31;;;;;;;9.57;4.95;;;;;;;;;;4975296;28;20034;-70
2021/12/12 02:50:08;;;;;;;6.78;4.70;;;;;;;;;;4975796;28;20341;-70
2021/12/12 02:52:35;;;;;;;7.60;4.43;;;;;;;;;;4975717;28;20106;-70
2021/12/12 02:55:05;;;;;;;10.50;5.40;;;;;;;;;;4975862;28;20039;-69
2021/12/12 02:57:31;;;;;;;6.63;4.65;;;;;;;;;;4975337;28;20086;-70
2021/12/12 02:59:57;;;;;;;8.48;4.03;;;;;;;;;;4975321;28;20054;-71
2021/12/12 03:02:28;;;;;;;11.43;4.75;;;;;;;;;;4974719;28;20249;-68
2021/12/12 03:04:56;;;;;;;7.75;4.47;;;;;;;;;;4975529;28;20380;-70
2021/12/12 03:07:22;;;;;;;5.10;3.65;;;;;;;;;;4974843;28;20079;-70
2021/12/12 03:09:51;;;;;;;8.32;4.82;;;;;;;;;;4975523;28;20038;-70
2021/12/12 03:12:23;;;;;;;8.75;4.15;;;;;;;;;;4974791;28;20035;-70
2021/12/12 03:14:49;;;;;;;6.85;3.95;;;;;;;;;;4975508;28;20027;-70
2021/12/12 03:17:17;;;;;;;8.00;4.03;;;;;;;;;;4975016;28;20046;-68
2021/12/12 03:19:51;;;;;;;6.75;4.13;;;;;;;;;;4969529;28;20110;-71
2021/12/12 03:22:17;;;;;;;7.50;4.07;;;;;;;;;;4963293;28;20031;-70
2021/12/12 03:24:43;;;;;;;6.97;3.65;;;;;;;;;;4966218;28;20020;-70
2021/12/12 03:27:10;;;;;;;8.05;3.47;;;;;;;;;;4962691;28;20054;-68
2021/12/12 03:29:37;;;;;;;6.93;3.92;;;;;;;;;;4964819;28;20054;-68
2021/12/12 03:32:06;;;;;;;5.22;3.40;;;;;;;;;;4965820;28;20371;-69
2021/12/12 03:34:35;;;;;;;5.85;3.38;;;;;;;;;;4963225;28;20030;-69
2021/12/12 03:37:01;;;;;;;8.07;3.55;;;;;;;;;;4965175;28;20040;-69
2021/12/12 03:39:29;;;;;;;6.65;4.05;;;;;;;;;;4962515;28;20082;-68
2021/12/12 03:41:56;;;;;;;6.70;3.83;;;;;;;;;;4962253;28;20082;-68
2021/12/12 03:44:23;;;;;;;5.90;3.83;;;;;;;;;;4963467;28;20046;-70
2021/12/12 03:46:51;;;;;;;8.20;3.40;;;;;;;;;;4967278;28;20042;-70
2021/12/12 03:49:17;;;;;;;7.60;3.75;;;;;;;;;;4963362;28;20021;-70
2021/12/12 03:51:44;;;;;;;4.95;3.30;;;;;;;;;;4964171;28;20031;-70
2021/12/12 03:54:11;;;;;;;7.50;3.47;;;;;;;;;;4964254;28;20081;-70
2021/12/12 03:56:39;;;;;;;9.20;4.20;;;;;;;;;;4960278;28;20107;-70
2021/12/12 03:59:05;;;;;;;7.25;3.30;;;;;;;;;;4961236;28;20071;-71
2021/12/12 04:01:33;;;;;;;6.78;3.00;;;;;;;;;;4962581;28;20035;-70
2021/12/12 04:04:05;;;;;;;7.78;3.50;;;;;;;;;;4966824;28;20019;-70
2021/12/12 04:06:31;;;;;;;7.40;3.30;;;;;;;;;;4965122;28;20416;-70
2021/12/12 04:08:58;;;;;;;6.32;3.70;;;;;;;;;;4963250;28;20022;-70
2021/12/12 04:11:27;;;;;;;4.93;2.97;;;;;;;;;;4964428;28;20035;-70
2021/12/12 04:13:54;;;;;;;7.53;3.05;;;;;;;;;;4961648;28;20029;-70
2021/12/12 04:16:20;;;;;;;6.28;3.58;;;;;;;;;;4968535;28;20031;-70
2021/12/12 04:18:47;;;;;;;5.15;3.08;;;;;;;;;;4973743;28;20073;-70
2021/12/12 04:21:14;;;;;;;9.80;3.42;;;;;;;;;;4973638;28;20377;-70
2021/12/12 04:23:41;;;;;;;5.38;2.97;;;;;;;;;;4974357;28;20050;-70
2021/12/12 04:26:27;;;;;;;9.50;3.38;;;;;;;;;;4986602;28;20046;-70
2021/12/12 04:29:02;;;;;;;6.72;2.92;;;;;;;;;;4975804;28;20113;-70
2021/12/12 04:31:28;;;;;;;7.65;3.10;;;;;;;;;;4973577;28;20023;-70
2021/12/12 04:33:55;;;;;;;6.55;3.40;;;;;;;;;;4973946;28;20027;-70
2021/12/12 04:36:29;;;;;;;5.90;3.25;;;;;;;;;;4973333;28;20062;-69
2021/12/12 04:39:00;;;;;;;8.38;3.15;;;1.10;99.90;;;;;;4973674;28;20373;-69
2021/12/12 04:41:26;;;;;;;4.43;3.42;;;1.00;99.90;;;;;;4973065;28;20388;-70
2021/12/12 04:43:51;;;;;;;7.22;3.88;;;0.80;99.90;;;;;;4973925;28;20031;-70
2021/12/12 04:46:24;;;;;;;7.60;4.00;;;0.80;99.90;;;;;;4973265;28;20420;-70
2021/12/12 04:52:03;;;;;;;10.23;4.00;;;0.60;99.90;;;;;;4973588;28;20133;-69
2021/12/12 04:54:53;;;;;;;8.80;4.45;;;0.60;99.90;;;;;;4972727;28;20054;-69
2021/12/12 04:57:22;;;;;;;8.32;4.03;;;0.50;99.90;;;;;;4972707;28;20408;-70
2021/12/12 04:59:59;;;;;;;8.80;4.65;;;0.50;99.90;;;;;;4973590;28;20089;-70
2021/12/12 05:02:42;;;;;;;7.75;4.45;;;0.40;99.90;;;;;;4972788;28;20289;-70
2021/12/12 05:05:21;;;;;;;7.53;4.65;;;0.40;99.90;;;;;;4972746;28;20023;-70
2021/12/12 05:08:06;;;;;;;9.02;4.75;;;0.30;99.90;;;;;;4973391;28;20042;-70
2021/12/12 05:10:57;;;;;;;7.65;4.40;;;0.30;99.90;;;;;;4959501;28;20023;-70
2021/12/12 05:13:38;;;;;;;7.28;4.63;;;0.30;99.90;;;;;;4973776;28;20110;-70
2021/12/12 05:16:29;;;;;;;6.82;4.22;;;0.30;99.90;;;;;;4973630;28;20030;-70
2021/12/12 05:19:05;;;;;;;8.25;4.50;;;0.40;99.90;;;;;;4968315;28;20039;-70
2021/12/12 05:21:36;;;;;;;8.38;4.30;;;0.40;99.90;;;;;;4972890;28;20033;-70
2021/12/12 05:24:08;;;;;;;7.57;4.28;;;0.50;99.90;;;;;;4973513;28;20027;-70
2021/12/12 05:26:40;;;;;;;7.82;4.07;;;0.60;99.90;;;;;;4973489;28;20031;-69
2021/12/12 05:29:30;;;;;;;7.95;3.80;;;0.60;99.90;;;;;;4973353;28;20031;-69
2021/12/12 05:31:59;;;;;;;6.93;3.67;;;0.80;99.90;;;;;;4973289;28;20129;-70
2021/12/12 05:34:30;;;;;;;10.23;3.80;;;0.90;99.90;;;;;;4972985;28;20033;-69
2021/12/12 05:36:58;;;;;;;8.30;4.20;;;1.10;99.90;;;;;;4973164;28;20053;-70
2021/12/12 05:39:26;;;;;;;8.63;3.97;;;1.20;99.90;;;;;;4972690;28;20089;-74
2021/12/12 05:41:54;;;;;;;7.60;4.18;;;1.20;99.90;;;;;;4973130;28;20457;-74
2021/12/12 05:44:21;;;;;;;7.15;3.45;;;1.20;99.90;;;;;;4972866;28;20031;-69
2021/12/12 05:46:47;;;;;;;6.32;4.00;;;1.20;99.90;;;;;;4973478;28;20097;-69
2021/12/12 05:49:13;;;;;;;8.05;4.40;;;1.20;99.90;;;;;;4972884;28;20030;-70
2021/12/12 05:51:39;;;;;;;6.78;4.47;;;1.20;99.90;;;;;;4973000;28;20027;-70
2021/12/12 05:54:06;;;;;;;6.18;4.32;;;1.10;99.90;;;;;;4973266;28;20031;-69
2021/12/12 05:56:37;;;;;;;6.57;4.60;;;1.30;99.90;;;;;;4972593;28;20476;-69
2021/12/12 05:59:06;;;;;;;5.82;3.72;;;1.30;99.90;;;;;;4973374;28;20031;-70
2021/12/12 06:01:33;;;;;;;5.95;4.05;;;1.30;99.90;;;;;;4972570;28;20119;-70
2021/12/12 06:03:59;;;;;;;5.95;3.83;;;1.40;99.90;;;;;;4973007;28;20035;-70
2021/12/12 06:06:32;;;;;;;5.50;3.92;;;1.40;99.90;;;;;;4971846;28;20042;-70
2021/12/12 06:09:00;;;;;;;7.90;4.80;;;1.30;99.90;;;;;;4976532;28;20468;-70
2021/12/12 06:11:29;;;;;;;6.20;3.90;;;1.40;99.90;;;;;;4975949;28;20058;-69
2021/12/12 06:13:56;;;;;;;5.90;3.72;;;1.40;99.90;;;;;;4976890;28;20526;-69
2021/12/12 06:16:23;;;;;;;6.10;3.70;;;1.40;99.90;;;;;;4975949;28;20105;-70
2021/12/12 06:18:53;;;;;;;8.18;3.80;;;1.50;99.90;;;;;;4976451;28;20046;-69
2021/12/12 06:21:19;;;;;;;4.80;3.25;;;1.50;99.90;;;;;;4975935;28;20031;-69
2021/12/12 06:23:45;;;;;;;5.13;3.90;;;1.40;99.90;;;;;;4976395;28;20110;-70
2021/12/12 06:26:10;;;;;;;7.18;4.15;;;1.40;99.90;;;;;;4976058;28;20031;-70
2021/12/12 06:28:39;;;;;;;4.63;3.38;;;1.40;99.90;;;;;;4976172;28;20042;-69
2021/12/12 06:31:06;;;;;;;7.45;3.75;;;1.30;99.90;;;;;;4975990;28;20022;-69
2021/12/12 06:33:32;;;;;;;7.20;3.95;;;1.30;99.90;;;;;;4975974;28;20504;-70
2021/12/12 06:35:58;;;;;;;7.47;4.05;;;1.20;99.90;;;;;;4976204;28;20085;-70
2021/12/12 06:38:25;;;;;;;6.13;3.85;;;1.20;99.90;;;;;;4981443;28;20042;-70
2021/12/12 06:40:53;;;;;;;6.40;4.55;;;1.10;99.90;;;;;;4995496;28;20034;-70
2021/12/12 06:43:20;;;;;;;7.38;4.95;;;1.00;99.90;;;;;;4995038;28;20022;-70
2021/12/12 06:45:47;;;;;;;5.65;4.10;;;0.90;99.90;;;;;;4967164;28;20473;-70
2021/12/12 06:48:14;;;;;;;6.28;4.22;;;0.80;99.90;;;;;;4965903;28;20035;-70
2021/12/12 06:50:43;;;;;;;6.32;4.32;;;0.70;99.90;;;;;;4967765;28;20478;-69
2021/12/12 06:53:12;;;;;;;11.48;5.00;;;0.60;99.90;;;;;;4965477;28;20023;-70
2021/12/12 06:55:43;;;;;;;7.70;5.20;;;0.50;99.90;;;;;;4963627;28;20078;-70
2021/12/12 06:58:11;;;;;;;8.23;5.03;;;0.40;99.90;;;;;;4963420;28;20031;-71
2021/12/12 07:00:38;;;;;;;7.20;5.13;;;0.30;99.90;;;;;;4963955;28;20039;-70
2021/12/12 07:03:04;;;;;;;8.93;5.18;;;0.30;99.90;;;;;;4963395;28;20365;-70
2021/12/12 07:05:31;;;;;;;7.57;4.63;;;0.20;99.90;;;;;;4962774;28;20122;-70
2021/12/12 07:07:58;;;;;;;9.43;4.78;;;0.10;99.90;;;;;;4964218;28;20031;-69
2021/12/12 07:10:27;;;;;;;7.43;5.50;;;0.10;99.90;;;;;;4963874;28;20033;-70
2021/12/12 07:12:56;;;;;;;11.85;7.03;;;0.10;99.90;;;;;;4965045;28;20460;-70
2021/12/12 07:15:33;;;;;;;8.37;5.10;;;0.10;99.90;;;;;;4963986;28;20042;-69
2021/12/12 07:18:06;;;;;;;8.10;5.28;;;0.10;99.90;;;;;;4963919;28;20031;-70
2021/12/12 07:20:33;;;;;;;8.73;5.20;;;0.10;99.90;;;;;;4965558;28;20387;-70
2021/12/12 07:22:58;;;;;;;9.00;5.15;;;0.10;99.90;;;;;;4967107;28;20030;-69
2021/12/12 07:25:25;;;;;;;9.20;5.20;;;0.20;99.90;;;;;;4965605;28;20053;-69
2021/12/12 07:27:51;;;;;;;10.23;6.22;;;0.20;99.90;;;;;;4965533;28;20026;-73
2021/12/12 07:30:18;;;;;;;10.40;6.03;;;0.20;99.90;;;;;;4955691;29;20038;-70
2021/12/12 07:32:44;;;;;;;9.52;5.90;;;0.20;99.90;;;;;;4961167;28;20027;-71
2021/12/12 07:35:13;;;;;;;9.68;5.68;;;0.20;99.90;;;;;;4969842;28;20026;-74
2021/12/12 07:37:39;;;;;;;11.70;5.82;;;0.30;99.90;;;;;;4965448;28;21056;-71
2021/12/12 07:40:07;;;;;;;10.48;5.88;;;0.30;99.90;;;;;;4964457;28;20031;-73
2021/12/12 07:42:33;;;;;;;9.70;6.38;;;0.30;99.90;;;;;;4963969;28;20054;-73
2021/12/12 07:44:59;;;;;;;8.57;5.43;;;0.30;99.90;;;;;;4964779;28;20035;-70
2021/12/12 07:47:28;;;;;;;9.43;6.40;;;0.40;99.90;;;;;;4960979;28;20045;-71
2021/12/12 07:49:54;;;;;;;8.90;4.68;;;0.30;99.90;;;;;;4968218;28;20485;-74
2021/12/12 07:52:23;;;;;;;5.93;4.38;;;0.40;99.90;;;;;;4973935;28;20035;-73
2021/12/12 07:54:50;;;;;;;6.55;3.97;;;0.50;99.90;;;;;;4980655;28;20034;-69
2021/12/12 07:57:17;;;;;;;9.13;4.47;;;0.60;99.90;;;;;;4993432;28;20558;-76
2021/12/12 07:59:44;;;;;;;7.47;4.00;;;0.70;99.90;;;;;;4994018;28;20023;-74
2021/12/12 08:02:12;;;;;;;7.78;4.07;;;0.80;99.90;;;;;;4972994;28;20034;-76
2021/12/12 08:04:39;;;;;;;7.43;4.13;;;0.90;99.90;;;;;;4982128;28;20037;-74
2021/12/12 08:07:12;;;;;;;7.78;4.25;;;1.00;99.90;;;;;;4974471;28;20473;-74
2021/12/12 08:09:42;;;;;;;5.38;3.83;;;1.10;99.90;;;;;;4974819;28;20038;-74
2021/12/12 08:12:20;;;;;;;5.20;3.63;;;1.20;99.90;;;;;;4974294;28;20041;-76
2021/12/12 08:14:49;;;;;;;4.93;3.20;;;1.30;99.90;;;;;;4974668;28;20259;-76
2021/12/12 08:17:16;;;;;;;5.78;3.75;;;1.50;99.90;;;;;;4982797;28;20041;-76
2021/12/12 08:19:43;;;;;;;5.65;2.88;;;1.70;99.90;;;;;;4978949;28;20027;-75
2021/12/12 08:22:10;;;;;;;4.47;2.72;;;1.80;99.90;;;;;;4974359;28;20468;-74
2021/12/12 08:24:38;;;;;;;5.30;2.67;;;2.00;99.90;;;;;;4989327;28;20034;-77
2021/12/12 08:27:07;;;;;;;5.07;3.30;;;2.30;99.90;;;;;;4988144;28;20073;-75
2021/12/12 08:29:33;;;;;;;4.30;3.20;;;2.30;99.90;;;;;;4973044;28;20054;-75
2021/12/12 08:32:02;;;;;;;4.70;2.70;;;2.50;99.90;;;;;;4973846;28;20027;-77
2021/12/12 08:34:28;;;;;;;5.40;3.35;;;2.60;99.90;;;;;;4973535;28;20041;-74
2021/12/12 08:36:55;;;;;;;5.07;3.08;;;2.70;99.90;;;;;;4973996;28;20035;-78
2021/12/12 08:39:21;;;;;;;4.13;2.65;;;2.70;99.90;;;;;;4978261;28;20031;-76
2021/12/12 08:41:50;;;;;;;2.65;2.35;;;2.90;99.90;;;;;;4974969;28;20106;-75
2021/12/12 08:44:17;;;;;;;5.35;2.40;;;2.90;99.90;;;;;;4973398;28;20109;-75
2021/12/12 08:46:46;;;;;;;4.57;2.63;;;2.90;99.90;;;;;;4973263;28;20034;-74
2021/12/12 08:49:14;;;;;;;4.20;3.10;;;3.00;99.90;;;;;;4973366;28;20050;-75
2021/12/12 08:51:48;;;;;;;4.63;2.30;;;3.00;99.90;;;;;;4973832;28;20480;-76
2021/12/12 08:54:23;;;;;;;3.55;2.42;;;3.00;99.90;;;;;;4972980;28;20468;-73
2021/12/12 08:56:54;;;;;;;2.97;2.35;;;3.00;99.90;;;;;;4973708;28;20053;-74
2021/12/12 08:59:26;;;;;;;5.80;2.58;;;3.10;99.90;;;;;;4973326;28;20031;-72
2021/12/12 09:01:55;;;;;;;7.07;3.03;;;3.00;99.90;;;;;;4973866;28;20031;-76
2021/12/12 09:04:22;;;;;;;4.70;2.72;;;3.00;99.90;;;;;;4966092;28;20058;-71
2021/12/12 09:07:17;;;;;;;2.42;2.10;;;3.00;99.90;;;;;;4994423;28;20030;-70
2021/12/12 09:09:54;;;;;;;2.67;2.13;;;3.00;99.90;;;;;;4985337;28;20093;-71
2021/12/12 09:12:22;;;;;;;3.10;2.13;;;3.10;99.90;;;;;;4988600;28;20096;-71
2021/12/12 09:14:58;;;;;;;3.72;2.58;;;3.00;99.90;;;;;;4984816;28;20031;-72
2021/12/12 09:17:41;;;;;;;3.28;2.33;;;3.10;99.90;;;;;;4973242;28;20361;-73
2021/12/12 09:20:26;;;;;;;3.42;2.28;;;3.10;99.90;;;;;;4973117;28;20376;-71
2021/12/12 09:23:00;;;;;;;3.22;2.15;;;3.10;99.90;;;;;;4973620;28;20037;-71
2021/12/12 09:25:37;;;;;;;5.43;2.60;;;3.20;99.90;;;;;;4973214;28;20085;-71
2021/12/12 09:28:08;;;;;;;4.40;2.30;;;3.20;99.90;;;;;;4973228;28;20057;-71
2021/12/12 09:30:35;;;;;;;2.95;2.33;;;3.20;99.90;;;;;;4972784;28;20038;-72
2021/12/12 09:33:24;;;;;;;3.50;2.25;;;3.20;99.90;;;;;;4973380;28;20080;-72
2021/12/12 09:36:06;;;;;;;3.50;2.47;;;3.30;99.90;;;;;;4989085;28;20034;-72
2021/12/12 09:39:24;;;;;;;4.13;2.13;;;3.30;99.90;;;;;;4992257;28;20049;-72
2021/12/12 09:42:03;;;;;;;3.17;2.30;;;3.30;99.90;;;;;;4940629;28;20054;-72
2021/12/12 09:44:34;;;;;;;2.97;2.10;;;3.30;99.90;;;;;;4972552;28;20449;-73
2021/12/12 09:47:31;;;;;;;4.22;1.90;;;3.40;99.90;;;;;;4973389;28;20041;-72
2021/12/12 09:53:23;;;;;;;3.28;2.30;;;3.60;99.90;;;;;;4972969;28;20042;-73
2021/12/12 09:56:04;;;;;;;3.60;2.08;;;3.70;99.90;;;;;;4972412;28;20023;-72
2021/12/12 09:58:55;;;;;;;3.13;2.20;;;3.80;99.90;;;;;;4962260;28;20043;-73
2021/12/12 10:01:46;;;;;;;2.75;1.70;;;4.00;99.90;;;;;;4970460;28;20066;-73
2021/12/12 10:04:29;;;;;;;3.10;2.10;;;4.10;99.90;;;;;;4971944;28;20049;-73
2021/12/12 10:07:03;;;;;;;2.95;1.73;;;4.20;99.90;;;;;;4972894;28;20038;-73
2021/12/12 10:09:41;;;;;;;3.50;2.33;;;4.30;99.90;;;;;;4954022;28;20383;-73
2021/12/12 10:12:13;;;;;;;2.60;2.00;;;4.30;99.90;;;;;;4973116;28;20034;-73
2021/12/12 10:14:47;;;;;;;3.67;2.05;;;4.30;99.90;;;;;;4972170;28;20365;-73
2021/12/12 10:17:15;;;;;;;3.13;2.25;;;4.40;99.90;;;;;;4973038;28;20125;-73
2021/12/12 10:19:41;;;;;;;4.55;1.95;;;4.40;99.90;;;;;;4973094;28;20449;-73
2021/12/12 10:22:09;;;;;;;3.60;1.88;;;4.50;99.90;;;;;;4972825;28;20023;-73
2021/12/12 10:24:58;;;;;;;4.78;2.30;;;4.60;99.90;;;;;;4953297;29;20267;-73
2021/12/12 10:27:47;;;;;;;2.15;1.80;;;4.60;99.90;;;;;;4945086;29;20041;-73
2021/12/12 10:30:18;;;;;;;2.58;1.80;;;4.70;99.90;;;;;;4960220;28;20047;-73
2021/12/12 10:33:21;;;;;;;3.33;1.70;;;4.70;99.90;;;;;;4973105;28;20031;-73
2021/12/12 10:35:54;;;;;;;4.65;1.80;;;4.80;99.90;;;;;;4967146;28;20500;-73
2021/12/12 10:38:27;;;;;;;3.22;1.95;;;4.80;99.90;;;;;;4972733;28;20122;-72
2021/12/12 10:41:04;;;;;;;5.63;2.08;;;4.80;99.90;;;;;;4972709;28;20432;-72
2021/12/12 10:43:43;;;;;;;4.30;1.55;;;4.80;99.90;;;;;;4972227;28;20039;-71
2021/12/12 10:46:18;;;;;;;2.08;1.55;;;4.90;99.90;;;;;;4972915;28;20085;-73
2021/12/12 10:48:56;;;;;;;4.10;2.08;;;;;;;;;;4972801;28;20084;-75
2021/12/12 10:51:23;;;;;;;4.97;1.83;;;5.10;99.90;;;;;;4972217;28;20368;-73
2021/12/12 10:54:01;;;;;;;5.43;1.63;;;5.10;99.90;;;;;;4977206;28;20471;-73
2021/12/12 10:56:39;;;;;;;2.92;1.88;;;5.20;99.90;;;;;;4986757;28;20053;-73
2021/12/12 10:59:22;;;;;;;2.78;1.90;;;5.20;99.90;;;;;;4976461;28;20043;-71
2021/12/12 11:01:51;;;;;;;2.88;1.63;;;5.30;99.90;;;;;;4975702;28;20030;-73
2021/12/12 11:04:40;;;;;;;3.35;1.60;;;;;;;;;;4975545;28;20026;-73
2021/12/12 11:07:12;;;;;;;3.10;1.90;;;;;;;;;;4978196;28;20082;-72
2021/12/12 11:09:46;;;;;;;3.90;1.77;;;5.90;99.90;;;;;;4973431;28;20476;-72
2021/12/12 11:12:23;;;;;;;6.70;1.73;;;5.90;99.90;;;;;;4975954;28;20038;-72
2021/12/12 11:15:26;;;;;;;4.45;1.90;;;5.90;99.90;;;;;;4996086;28;20034;-73
2021/12/12 11:18:06;;;;;;;3.55;1.92;;;5.90;99.90;;;;;;4978320;28;20062;-72
2021/12/12 11:20:35;;;;;;;;;;;5.90;99.90;;;;;;4976032;28;20046;-72
2021/12/12 11:23:21;;;;;;;2.15;1.38;;;6.00;99.90;;;;;;4975853;28;19996;-69
2021/12/12 11:26:07;;;;;;;2.70;1.60;;;6.10;99.90;;;;;;4967328;28;20053;-70
2021/12/12 11:28:47;;;;;;;2.60;1.88;;;6.20;99.90;;;;;;4966021;28;20081;-70
2021/12/12 11:31:24;;;;;;;6.70;1.80;;;6.20;99.90;;;;;;4968339;28;20519;-71
2021/12/12 11:33:52;;;;;;;3.05;2.30;;;6.20;99.90;;;;;;4966500;28;20027;-74
2021/12/12 11:36:31;;;;;;;3.90;2.38;;;6.20;99.90;;;;;;4958114;28;20116;-74
2021/12/12 11:39:15;;;;;;;5.53;1.83;;;6.30;99.90;;;;;;4956366;28;20117;-75
2021/12/12 11:42:04;;;;;;;3.10;1.92;;;6.30;99.90;;;;;;4967294;28;20498;-75
2021/12/12 11:44:52;;;;;;;6.53;2.23;;;6.20;99.90;;;;;;4975182;28;20484;-75
2021/12/12 11:47:41;;;;;;;4.38;2.15;;;6.30;99.90;;;;;;4975057;28;20035;-77
2021/12/12 11:50:33;;;;;;;5.70;1.70;;;6.30;99.90;;;;;;4975293;28;20110;-69
2021/12/12 11:53:11;;;;;;;3.55;1.63;;;6.30;99.90;;;;;;4974429;28;20033;-70
2021/12/12 11:55:45;;;;;;;2.65;1.48;;;6.30;99.90;;;;;;4974623;28;20030;-69
2021/12/12 11:58:21;;;;;;;5.45;1.77;;;6.40;99.90;;;;;;4975103;28;20125;-70
2021/12/12 12:00:57;;;;;;;2.97;1.90;;;6.30;99.90;;;;;;4975115;28;20035;-69
2021/12/12 12:03:33;;;;;;;6.68;1.60;;;6.30;99.90;;;;;;4985923;28;20031;-70
2021/12/12 12:06:37;;;;;;;3.42;1.70;;;6.40;99.90;;;;;;4973913;28;20029;-70
2021/12/12 12:09:11;;;;;;;3.25;1.58;;;6.40;99.90;;;;;;4956845;29;20028;-69
2021/12/12 12:11:54;;;;;;;1.83;1.55;;;6.50;99.90;;;;;;4960856;28;20027;-69
2021/12/12 12:14:46;;;;;;;2.67;1.40;;;6.40;99.90;;;;;;4974560;28;20388;-70
2021/12/12 12:17:35;;;;;;;2.10;1.38;;;6.30;97.40;;;;;;4974330;28;20122;-69
2021/12/12 12:20:18;;;;;;;2.53;1.30;;;6.40;97.60;;;;;;4974590;28;20031;-69
2021/12/12 12:23:05;;;;;;;2.55;1.17;;;6.50;96.90;;;;;;4981730;28;20033;-69
2021/12/12 12:29:00;;;;;;;2.85;1.20;;;6.60;97.00;;;;;;4993051;28;20056;-69
2021/12/12 12:31:39;;;;;;;2.28;1.48;;;;;;;;;;4988949;28;20042;-69
2021/12/12 12:34:30;;;;;;;1.85;1.20;;;6.80;95.90;;;;;;4993718;28;20018;-69
2021/12/12 12:37:29;;;;;;;3.22;1.42;;;6.90;95.10;;;;;;4991480;28;20030;-69
2021/12/12 12:40:17;;;;;;;5.97;1.33;;;6.80;95.00;;;;;;4993459;28;20456;-69
2021/12/12 12:43:07;;;;;;;4.10;1.20;;;6.80;95.40;;;;;;4992438;28;20081;-69
2021/12/12 12:45:51;;;;;;;;;;;6.80;94.40;;;;;;4993395;28;20026;-69
2021/12/12 12:48:45;;;;;;;3.88;1.25;;;6.70;94.30;;;;;;4993293;28;19906;-69
2021/12/12 12:51:29;;;;;;;1.60;1.25;;;6.70;94.20;;;;;;4980678;28;20035;-68
2021/12/12 12:54:19;;;;;;;1.70;1.20;;;6.70;94.60;;;;;;4973566;28;20384;-68
2021/12/12 12:57:06;;;;;;;2.17;1.33;;;6.70;94.60;;;;;;4972975;28;20412;-68
2021/12/12 12:59:46;;;;;;;2.17;1.23;;;6.60;95.00;;;;;;4973582;28;20039;-69
2021/12/12 13:02:20;;;;;;;4.13;1.73;;;6.70;94.50;;;;;;4993522;28;20459;-68
2021/12/12 13:05:29;;;;;;;2.00;1.35;;;6.60;94.70;;;;;;4985520;28;20038;-69
2021/12/12 13:08:40;;;;;;;2.63;1.35;;;6.50;95.50;;;;;;4993360;28;20026;-70
2021/12/12 13:11:10;;;;;;;3.70;1.60;;;6.60;95.50;;;;;;4992792;28;20403;-70
2021/12/12 13:13:43;;;;;;;7.95;1.80;;;6.60;95.50;;;;;;4992460;28;20066;-70
2021/12/12 13:16:24;;;;;;;5.95;1.77;;;6.60;95.70;;;;;;4992612;28;20380;-70
2021/12/12 13:19:03;;;;;;;2.92;1.52;;;6.70;95.40;;;;;;4992727;28;20026;-70
2021/12/12 13:21:37;;;;;;;3.30;1.50;;;6.70;95.50;;;;;;4976401;28;20118;-69
2021/12/12 13:24:35;;;;;;;5.75;1.80;;;6.80;95.30;;;;;;4973538;28;20031;-69
2021/12/12 13:27:30;;;;;;;2.15;1.35;;;6.80;96.00;;;;;;4973642;28;20165;-69
2021/12/12 13:30:08;;;;;;;3.47;1.90;;;6.70;95.70;;;;;;4973390;28;20035;-69
2021/12/12 13:32:45;;;;;;;3.95;1.45;;;6.70;95.80;;;;;;4973309;28;20031;-69
2021/12/12 13:35:23;;;;;;;3.63;2.15;;;6.70;96.20;;;;;;4972880;28;20037;-69
2021/12/12 13:38:28;;;;;;;3.03;2.05;;;6.60;96.00;;;;;;4973100;28;20027;-69
2021/12/12 13:41:13;;;;;;;2.70;1.73;;;6.60;96.20;;;;;;4951121;28;20043;-68
2021/12/12 13:43:52;;;;;;;1.95;1.35;;;6.40;95.90;;;;;;4972691;28;20026;-69
2021/12/12 13:47:00;;;;;;;2.92;1.48;;;6.40;96.00;;;;;;4973269;28;20027;-69
2021/12/12 13:49:37;;;;;;;3.60;1.75;;;6.30;96.70;;;;;;4966664;28;20051;-69
2021/12/12 13:52:30;;;;;;;4.97;1.67;;;6.30;97.10;;;;;;4973057;28;20030;-69
2021/12/12 13:55:10;;;;;;;3.17;1.70;;;6.20;97.70;;;;;;4972678;28;20035;-69
2021/12/12 13:57:44;;;;;;;3.47;1.42;;;6.10;97.80;;;;;;4972547;28;20054;-69
2021/12/12 14:00:21;;;;;;;5.65;1.52;;;6.10;98.10;;;;;;4973108;28;20477;-68
2021/12/12 14:02:57;;;;;;;5.20;2.03;;;6.10;97.90;;;;;;4972072;28;20114;-70
2021/12/12 14:05:45;;;;;;;2.97;1.92;;;6.10;98.50;;;;;;4971548;28;20027;-68
2021/12/12 14:08:14;;;;;;;3.42;1.98;;;6.10;98.40;;;;;;4992498;28;20047;-69
2021/12/12 14:11:13;;;;;;;4.03;2.13;;;6.00;98.80;;;;;;4977261;28;20023;-69
2021/12/12 14:13:43;;;;;;;6.22;2.05;;;6.00;99.10;;;;;;4971993;28;20518;-69
2021/12/12 14:16:19;;;;;;;4.35;1.50;;;6.00;99.00;;;;;;4973159;28;20027;-69
2021/12/12 14:19:03;;;;;;;4.53;2.30;;;6.00;99.20;;;;;;4972450;28;20105;-69
2021/12/12 14:21:29;;;;;;;3.92;1.73;;;6.00;99.40;;;;;;4972292;28;20407;-70
2021/12/12 14:23:57;;;;;;;3.38;2.35;;;6.00;99.60;;;;;;4972881;28;20046;-70
2021/12/12 14:26:31;;;;;;;3.45;2.17;;;6.00;99.70;;;;;;4977857;28;20513;-69